createdAt,value
2019-03-23T00:02:22.467Z,7.27
2019-03-23T00:04:50.007Z,6.27
2019-03-23T00:07:17.578Z,6.30
2019-03-23T00:09:44.789Z,7.50
2019-03-23T00:12:12.022Z,7.53
2019-03-23T00:14:39.540Z,7.10
2019-03-23T00:17:06.768Z,6.40
2019-03-23T00:19:34.243Z,6.37
2019-03-23T00:22:01.814Z,6.80
2019-03-23T00:24:29.064Z,6.83
2019-03-23T00:26:56.288Z,7.00
2019-03-23T00:29:23.758Z,6.97
2019-03-23T00:31:51.335Z,7.13
2019-03-23T00:34:18.566Z,6.80
2019-03-23T00:36:45.784Z,7.70
2019-03-23T00:39:12.994Z,7.77
2019-03-23T00:41:40.528Z,7.97
2019-03-23T00:44:07.737Z,7.30
2019-03-23T00:46:35.238Z,8.37
2019-03-23T00:49:02.449Z,8.63
2019-03-23T00:51:29.946Z,7.70
2019-03-23T00:53:57.258Z,8.20
2019-03-23T01:09:26.964Z,8.00
2019-03-23T01:45:05.490Z,8.30
2019-03-23T01:47:32.731Z,8.97
2019-03-23T01:49:59.942Z,8.53
2019-03-23T01:52:27.167Z,7.63
2019-03-23T01:54:54.380Z,8.30
2019-03-23T01:57:21.620Z,7.77
2019-03-23T01:59:48.835Z,8.20
2019-03-23T02:02:16.067Z,8.40
2019-03-23T02:04:43.287Z,7.77
2019-03-23T02:07:13.971Z,7.93
2019-03-23T02:09:39.781Z,8.03
2019-03-23T02:12:07.336Z,8.13
2019-03-23T02:14:34.537Z,8.63
2019-03-23T02:17:01.750Z,7.53
2019-03-23T02:19:29.287Z,8.50
2019-03-23T02:21:56.490Z,8.50
2019-03-23T02:24:23.994Z,8.13
2019-03-23T02:59:58.011Z,9.43
2019-03-23T03:02:25.222Z,9.73
2019-03-23T03:04:52.688Z,9.77
2019-03-23T03:07:19.898Z,10.60
2019-03-23T03:09:47.136Z,10.57
2019-03-23T03:12:14.349Z,24.33
2019-03-23T03:14:41.607Z,27.50
2019-03-23T03:17:08.797Z,31.50
2019-03-23T03:19:36.036Z,30.80
2019-03-23T03:22:03.250Z,31.83
2019-03-23T03:24:30.489Z,35.17
2019-03-23T03:26:58.963Z,36.03
2019-03-23T03:29:26.252Z,41.77
2019-03-23T03:31:53.459Z,40.27
2019-03-23T03:34:20.701Z,41.40
2019-03-23T03:36:47.920Z,43.37
2019-03-23T03:39:15.164Z,44.33
2019-03-23T03:41:42.382Z,43.73
2019-03-23T03:44:09.614Z,43.17
2019-03-23T03:46:36.848Z,41.63
2019-03-23T03:49:12.470Z,47.10
2019-03-23T03:51:33.359Z,45.00
2019-03-23T03:54:00.926Z,48.97
2019-03-23T03:56:28.168Z,47.60
2019-03-23T03:58:55.727Z,51.37
2019-03-23T04:01:23.289Z,52.03
2019-03-23T04:03:50.540Z,53.03
2019-03-23T04:06:17.754Z,53.87
2019-03-23T04:08:45.006Z,57.80
2019-03-23T04:11:12.235Z,56.07
2019-03-23T04:13:39.456Z,59.37
2019-03-23T04:16:06.767Z,60.53
2019-03-23T04:18:34.011Z,64.93
2019-03-23T04:21:01.229Z,62.80
2019-03-23T04:23:28.797Z,64.93
2019-03-23T04:25:56.326Z,65.40
2019-03-23T04:28:23.540Z,62.07
2019-03-23T04:30:52.936Z,59.90
2019-03-23T04:33:20.015Z,57.50
2019-03-23T04:35:47.231Z,62.07
2019-03-23T04:38:22.647Z,61.80
2019-03-23T04:40:43.409Z,61.10
2019-03-23T04:43:10.962Z,60.37
2019-03-23T04:45:38.181Z,57.40
2019-03-23T04:48:05.679Z,56.93
2019-03-23T04:50:33.377Z,59.00
2019-03-23T04:53:01.607Z,60.57
2019-03-23T04:55:28.864Z,62.20
2019-03-23T04:57:56.077Z,58.67
2019-03-23T05:00:23.309Z,60.40
2019-03-23T05:02:50.521Z,55.13
2019-03-23T05:05:17.765Z,60.77
2019-03-23T05:07:45.327Z,58.80
2019-03-23T05:10:12.840Z,57.80
2019-03-23T05:12:40.125Z,65.20
2019-03-23T05:15:07.726Z,63.43
2019-03-23T05:17:40.873Z,62.23
2019-03-23T05:20:09.159Z,65.27
2019-03-23T05:22:36.398Z,65.80
2019-03-23T05:25:04.291Z,71.37
2019-03-23T05:27:31.545Z,78.53
2019-03-23T05:29:58.765Z,79.83
2019-03-23T05:32:26.011Z,77.63
2019-03-23T05:34:53.232Z,76.37
2019-03-23T05:37:20.477Z,80.70
2019-03-23T05:39:47.689Z,82.80
2019-03-23T05:42:14.935Z,86.37
2019-03-23T05:44:42.491Z,88.73
2019-03-23T05:47:09.735Z,82.43
2019-03-23T05:49:36.955Z,84.90
2019-03-23T05:52:04.556Z,86.13
2019-03-23T05:54:31.780Z,82.07
2019-03-23T05:56:58.990Z,85.87
2019-03-23T05:59:26.242Z,84.10
2019-03-23T06:01:53.466Z,83.20
2019-03-23T06:04:20.738Z,78.83
2019-03-23T06:06:47.994Z,87.20
2019-03-23T06:09:15.210Z,84.53
2019-03-23T06:11:42.768Z,85.33
2019-03-23T06:14:10.011Z,80.67
2019-03-23T06:16:37.234Z,83.27
2019-03-23T06:19:04.486Z,82.33
2019-03-23T06:21:31.689Z,84.27
2019-03-23T06:23:58.944Z,84.37
2019-03-23T06:26:26.161Z,86.80
2019-03-23T06:28:53.383Z,79.57
2019-03-23T06:31:20.628Z,82.50
2019-03-23T06:33:48.133Z,81.33
2019-03-23T06:36:15.686Z,84.30
2019-03-23T06:38:42.937Z,78.23
2019-03-23T06:41:10.154Z,83.67
2019-03-23T06:43:37.393Z,82.23
2019-03-23T06:46:04.902Z,82.43
2019-03-23T06:48:32.123Z,81.87
2019-03-23T06:50:59.350Z,82.20
2019-03-23T06:53:26.866Z,79.87
2019-03-23T06:55:54.086Z,73.10
2019-03-23T06:58:21.333Z,81.37
2019-03-23T07:00:48.949Z,79.13
2019-03-23T07:03:16.435Z,80.40
2019-03-23T07:05:43.930Z,78.70
2019-03-23T07:08:11.158Z,77.80
2019-03-23T07:10:38.452Z,79.60
2019-03-23T07:13:05.703Z,78.07
2019-03-23T07:15:32.940Z,78.97
2019-03-23T07:18:00.155Z,77.33
2019-03-23T07:20:27.409Z,72.80
2019-03-23T07:22:54.955Z,76.77
2019-03-23T07:25:22.662Z,75.70
2019-03-23T07:27:50.323Z,75.37
2019-03-23T07:30:18.111Z,75.57
2019-03-23T07:32:45.387Z,73.07
2019-03-23T07:35:13.817Z,71.10
2019-03-23T07:37:41.383Z,68.87
2019-03-23T07:40:09.366Z,70.30
2019-03-23T07:42:36.602Z,71.80
2019-03-23T07:45:07.874Z,66.33
2019-03-23T07:47:35.099Z,64.90
2019-03-23T07:50:02.642Z,65.17
2019-03-23T07:52:29.858Z,65.83
2019-03-23T07:54:58.622Z,66.50
2019-03-23T07:57:25.861Z,62.67
2019-03-23T07:59:53.098Z,62.23
2019-03-23T08:02:20.350Z,62.90
2019-03-23T08:04:47.899Z,63.87
2019-03-23T08:07:15.154Z,63.53
2019-03-23T08:09:42.403Z,64.23
2019-03-23T08:12:13.107Z,63.37
2019-03-23T08:14:40.691Z,64.93
2019-03-23T08:17:07.936Z,58.40
2019-03-23T08:19:35.407Z,60.13
2019-03-23T08:22:02.657Z,63.93
2019-03-23T08:24:29.884Z,64.03
2019-03-23T08:26:57.125Z,60.73
2019-03-23T08:29:24.347Z,59.50
2019-03-23T08:31:51.870Z,57.53
2019-03-23T08:34:19.098Z,57.93
2019-03-23T08:36:46.346Z,59.80
2019-03-23T08:39:13.929Z,59.00
2019-03-23T08:41:41.160Z,56.73
2019-03-23T08:44:08.383Z,56.40
2019-03-23T08:46:35.634Z,56.17
2019-03-23T08:49:02.938Z,55.43
2019-03-23T08:51:30.169Z,54.67
2019-03-23T08:53:57.478Z,57.00
2019-03-23T08:56:24.701Z,58.63
2019-03-23T08:58:52.414Z,54.03
2019-03-23T09:01:19.637Z,57.80
2019-03-23T09:03:52.494Z,59.80
2019-03-23T09:06:16.150Z,58.17
2019-03-23T09:08:43.708Z,57.87
2019-03-23T09:11:20.171Z,57.73
2019-03-23T09:13:40.955Z,56.93
2019-03-23T09:16:08.426Z,59.80
2019-03-23T09:18:35.990Z,58.20
2019-03-23T09:21:03.218Z,56.40
2019-03-23T09:23:30.898Z,57.23
2019-03-23T09:25:58.455Z,57.60
2019-03-23T09:28:28.247Z,56.67
2019-03-23T09:30:55.020Z,54.57
2019-03-23T09:33:24.229Z,56.43
2019-03-23T09:35:51.219Z,54.60
2019-03-23T09:38:18.450Z,53.33
2019-03-23T09:40:45.677Z,52.27
2019-03-23T09:43:13.211Z,53.23
2019-03-23T09:45:40.426Z,50.83
2019-03-23T09:48:10.766Z,57.27
2019-03-23T09:50:37.989Z,55.47
2019-03-23T09:53:05.238Z,50.83
2019-03-23T09:55:32.473Z,51.70
2019-03-23T09:57:59.701Z,53.13
2019-03-23T10:00:26.936Z,53.63
2019-03-23T10:02:54.152Z,52.60
2019-03-23T10:05:21.651Z,52.17
2019-03-23T10:07:48.870Z,53.97
2019-03-23T10:10:21.839Z,54.80
2019-03-23T10:12:45.064Z,53.93
2019-03-23T10:15:12.307Z,54.30
2019-03-23T10:17:39.567Z,54.93
2019-03-23T10:20:07.525Z,52.00
2019-03-23T10:22:34.746Z,54.60
2019-03-23T10:25:02.319Z,52.83
2019-03-23T10:27:29.543Z,52.63
2019-03-23T10:29:56.787Z,52.77
2019-03-23T10:32:24.011Z,54.53
2019-03-23T10:34:51.260Z,53.60
2019-03-23T10:37:18.791Z,54.13
2019-03-23T10:39:46.055Z,55.47
2019-03-23T10:42:13.275Z,55.90
2019-03-23T10:44:40.861Z,55.30
2019-03-23T10:47:08.406Z,55.77
2019-03-23T10:49:35.966Z,56.20
2019-03-23T10:52:03.202Z,57.37
2019-03-23T10:54:31.598Z,55.23
2019-03-23T10:56:58.974Z,55.27
2019-03-23T10:59:28.024Z,55.27
2019-03-23T11:01:55.500Z,52.33
2019-03-23T11:04:22.747Z,55.07
2019-03-23T11:06:49.984Z,55.03
2019-03-23T11:09:17.237Z,54.17
2019-03-23T11:11:44.456Z,52.23
2019-03-23T11:14:11.963Z,52.70
2019-03-23T11:16:39.198Z,54.47
2019-03-23T11:19:13.383Z,53.30
2019-03-23T11:21:35.683Z,54.13
2019-03-23T11:24:02.986Z,54.77
2019-03-23T11:26:30.474Z,53.23
2019-03-23T11:28:58.647Z,52.57
2019-03-23T11:31:25.864Z,53.50
2019-03-23T11:33:53.109Z,52.30
2019-03-23T11:36:20.338Z,52.57
2019-03-23T11:38:47.879Z,53.60
2019-03-23T11:41:17.360Z,53.13
2019-03-23T11:43:45.043Z,51.63
2019-03-23T11:46:12.291Z,52.40
2019-03-23T11:48:39.497Z,52.37
2019-03-23T11:51:07.093Z,52.57
2019-03-23T11:53:34.642Z,52.07
2019-03-23T11:56:01.893Z,48.93
2019-03-23T11:58:29.131Z,48.73
2019-03-23T12:00:56.703Z,48.17
2019-03-23T12:03:23.935Z,50.17
2019-03-23T12:05:51.513Z,47.97
2019-03-23T12:08:19.071Z,47.63
2019-03-23T12:10:46.283Z,47.77
2019-03-23T12:13:13.527Z,51.43
2019-03-23T12:15:41.023Z,50.33
2019-03-23T12:18:08.243Z,49.40
2019-03-23T12:20:37.637Z,50.53
2019-03-23T12:23:04.948Z,50.90
2019-03-23T12:25:33.592Z,49.07
2019-03-23T12:28:01.174Z,49.73
2019-03-23T12:30:28.434Z,48.50
2019-03-23T12:32:57.834Z,49.50
2019-03-23T12:35:25.074Z,50.07
2019-03-23T12:37:52.640Z,50.30
2019-03-23T12:40:21.606Z,50.00
2019-03-23T12:42:48.861Z,51.90
2019-03-23T12:45:16.144Z,50.70
2019-03-23T12:47:43.375Z,49.63
2019-03-23T12:50:11.212Z,51.50
2019-03-23T12:52:38.445Z,49.90
2019-03-23T12:55:08.738Z,51.43
2019-03-23T12:57:36.045Z,51.13
2019-03-23T13:00:04.823Z,50.93
2019-03-23T13:02:32.422Z,51.50
2019-03-23T13:04:59.674Z,49.87
2019-03-23T13:07:28.863Z,53.03
2019-03-23T13:09:56.094Z,52.27
2019-03-23T13:12:23.353Z,49.40
2019-03-23T13:14:51.018Z,49.83
2019-03-23T13:17:18.246Z,48.00
2019-03-23T13:19:45.531Z,50.57
2019-03-23T13:22:12.773Z,51.97
2019-03-23T13:24:40.009Z,52.67
2019-03-23T13:27:07.231Z,52.30
2019-03-23T13:29:34.464Z,53.00
2019-03-23T13:32:01.672Z,52.27
2019-03-23T13:34:28.923Z,52.87
2019-03-23T13:36:56.386Z,52.67
2019-03-23T13:39:23.846Z,53.57
2019-03-23T13:41:51.082Z,54.10
2019-03-23T13:44:18.858Z,52.23
2019-03-23T13:46:47.025Z,51.63
2019-03-23T13:49:14.604Z,53.27
2019-03-23T13:51:41.822Z,53.13
2019-03-23T13:54:09.078Z,51.90
2019-03-23T13:56:36.278Z,53.23
2019-03-23T13:59:03.503Z,53.57
2019-03-23T14:01:30.741Z,50.07
2019-03-23T14:03:57.955Z,46.53
2019-03-23T14:06:25.453Z,50.67
2019-03-23T14:08:53.013Z,49.93
2019-03-23T14:11:20.241Z,51.90
2019-03-23T14:13:47.458Z,48.83
2019-03-23T14:16:14.685Z,47.77
2019-03-23T14:18:41.925Z,46.80
2019-03-23T14:21:09.141Z,48.10
2019-03-23T14:23:36.381Z,48.97
2019-03-23T14:26:03.631Z,49.10
2019-03-23T14:28:30.848Z,46.57
2019-03-23T14:30:58.098Z,45.37
2019-03-23T14:33:25.348Z,46.40
2019-03-23T14:35:52.589Z,45.20
2019-03-23T14:38:20.139Z,46.53
2019-03-23T14:40:47.691Z,46.27
2019-03-23T14:43:14.934Z,45.07
2019-03-23T14:45:42.195Z,45.13
2019-03-23T14:48:09.430Z,44.33
2019-03-23T14:50:36.899Z,43.87
2019-03-23T14:53:04.143Z,43.77
2019-03-23T14:55:31.366Z,43.63
2019-03-23T14:57:58.602Z,42.33
2019-03-23T15:00:29.386Z,43.80
2019-03-23T15:02:56.638Z,43.70
2019-03-23T15:05:23.853Z,42.17
2019-03-23T15:07:51.065Z,44.90
2019-03-23T15:10:18.312Z,42.90
2019-03-23T15:12:45.851Z,42.57
2019-03-23T15:15:13.138Z,43.70
2019-03-23T15:17:48.391Z,44.07
2019-03-23T15:20:09.380Z,44.17
2019-03-23T15:22:36.899Z,46.40
2019-03-23T15:25:05.186Z,45.70
2019-03-23T15:27:32.441Z,46.83
2019-03-23T15:29:59.658Z,45.90
2019-03-23T15:32:26.878Z,45.20
2019-03-23T15:34:54.116Z,45.93
2019-03-23T15:37:21.335Z,46.60
2019-03-23T15:39:48.894Z,45.20
2019-03-23T15:42:24.402Z,46.40
2019-03-23T15:44:45.339Z,45.77
2019-03-23T15:47:12.551Z,45.20
2019-03-23T15:49:39.789Z,154.40
2019-03-23T15:52:07.025Z,69.50
2019-03-23T15:54:34.546Z,44.57
2019-03-23T15:57:01.795Z,44.97
2019-03-23T15:59:29.041Z,45.23
2019-03-23T16:01:56.610Z,45.80
2019-03-23T16:04:23.837Z,45.77
2019-03-23T16:06:51.070Z,43.83
2019-03-23T16:09:18.313Z,43.50
2019-03-23T16:11:45.540Z,45.03
2019-03-23T16:14:12.753Z,43.43
2019-03-23T16:16:40.025Z,43.07
2019-03-23T16:19:07.598Z,41.93
2019-03-23T16:21:34.806Z,42.37
2019-03-23T16:24:02.395Z,42.57
2019-03-23T16:26:32.814Z,43.20
2019-03-23T16:29:00.054Z,39.70
2019-03-23T16:31:27.639Z,40.50
2019-03-23T16:33:54.850Z,41.67
2019-03-23T16:36:22.095Z,41.63
2019-03-23T16:38:49.318Z,42.67
2019-03-23T16:41:16.557Z,42.73
2019-03-23T16:43:43.780Z,41.20
2019-03-23T16:46:10.996Z,42.33
2019-03-23T16:48:38.243Z,40.43
2019-03-23T16:51:05.453Z,40.70
2019-03-23T16:53:32.683Z,40.70
2019-03-23T16:55:59.897Z,40.03
2019-03-23T16:58:27.133Z,41.20
2019-03-23T17:00:54.638Z,41.03
2019-03-23T17:03:21.873Z,40.27
2019-03-23T17:05:49.102Z,40.87
2019-03-23T17:08:16.591Z,40.40
2019-03-23T17:10:44.153Z,41.73
2019-03-23T17:13:11.714Z,40.90
2019-03-23T17:15:39.280Z,40.50
2019-03-23T17:18:06.529Z,41.47
2019-03-23T17:20:33.753Z,40.90
2019-03-23T17:23:01.271Z,41.43
2019-03-23T17:25:28.789Z,40.80
2019-03-23T17:27:56.007Z,39.77
2019-03-23T17:30:23.251Z,39.73
2019-03-23T17:32:50.462Z,39.87
2019-03-23T17:35:17.702Z,41.40
2019-03-23T17:37:44.942Z,40.67
2019-03-23T17:40:12.355Z,41.47
2019-03-23T17:42:39.569Z,41.07
2019-03-23T17:45:07.174Z,37.87
2019-03-23T17:47:34.410Z,39.93
2019-03-23T17:50:01.623Z,40.43
2019-03-23T17:52:29.161Z,39.30
2019-03-23T17:54:56.722Z,38.67
2019-03-23T17:57:23.963Z,38.30
2019-03-23T17:59:51.213Z,39.37
2019-03-23T18:02:18.446Z,38.67
2019-03-23T18:04:45.936Z,38.77
2019-03-23T18:07:13.499Z,39.90
2019-03-23T18:09:40.739Z,39.57
2019-03-23T18:12:07.961Z,38.83
2019-03-23T18:14:35.199Z,39.60
2019-03-23T18:17:02.710Z,39.37
2019-03-23T18:19:29.959Z,40.00
2019-03-23T18:21:57.513Z,39.50
2019-03-23T18:24:25.072Z,39.50
2019-03-23T18:26:52.318Z,38.80
2019-03-23T18:29:19.890Z,39.40
2019-03-23T18:31:47.194Z,40.17
2019-03-23T18:34:14.699Z,41.90
2019-03-23T18:36:42.083Z,41.10
2019-03-23T18:39:09.354Z,40.83
2019-03-23T18:41:36.640Z,41.50
2019-03-23T18:44:04.318Z,41.93
2019-03-23T18:46:31.878Z,41.47
2019-03-23T18:48:59.114Z,42.33
2019-03-23T18:51:26.328Z,42.07
2019-03-23T18:53:53.573Z,42.37
2019-03-23T18:56:20.795Z,40.97
2019-03-23T18:58:48.056Z,41.63
2019-03-23T19:01:15.270Z,41.80
2019-03-23T19:03:42.485Z,41.43
2019-03-23T19:06:09.717Z,40.83
2019-03-23T19:08:37.235Z,40.33
2019-03-23T19:11:04.489Z,42.87
2019-03-23T19:13:37.887Z,42.10
2019-03-23T19:16:01.547Z,43.07
2019-03-23T19:18:28.775Z,42.30
2019-03-23T19:20:55.990Z,42.37
2019-03-23T19:23:23.233Z,41.93
2019-03-23T19:25:50.757Z,42.60
2019-03-23T19:28:18.319Z,42.10
2019-03-23T19:30:45.538Z,43.90
2019-03-23T19:33:12.778Z,42.50
2019-03-23T19:35:39.993Z,43.90
2019-03-23T19:38:07.527Z,44.27
2019-03-23T19:40:34.815Z,43.97
2019-03-23T19:43:02.040Z,44.20
2019-03-23T19:45:29.592Z,41.80
2019-03-23T19:47:56.815Z,44.03
2019-03-23T19:50:24.397Z,42.93
2019-03-23T19:52:51.613Z,42.37
2019-03-23T19:55:19.107Z,43.27
2019-03-23T19:57:46.321Z,42.07
2019-03-23T20:00:13.630Z,42.00
2019-03-23T20:02:40.861Z,43.87
2019-03-23T20:05:08.429Z,42.07
2019-03-23T20:07:35.668Z,43.93
2019-03-23T20:10:03.450Z,43.80
2019-03-23T20:12:31.005Z,42.97
2019-03-23T20:14:58.224Z,42.93
2019-03-23T20:17:25.456Z,43.70
2019-03-23T20:19:52.673Z,42.27
2019-03-23T20:22:19.945Z,41.13
2019-03-23T20:24:47.154Z,43.10
2019-03-23T20:27:14.453Z,43.70
2019-03-23T20:29:41.698Z,41.60
2019-03-23T20:32:08.934Z,44.37
2019-03-23T20:34:36.177Z,44.47
2019-03-23T20:37:03.390Z,43.43
2019-03-23T20:39:30.959Z,43.97
2019-03-23T20:41:58.217Z,41.90
2019-03-23T20:44:25.492Z,44.20
2019-03-23T20:46:52.721Z,44.27
2019-03-23T20:49:20.223Z,44.57
2019-03-23T20:51:47.809Z,43.13
2019-03-23T20:54:15.030Z,42.70
2019-03-23T20:56:42.251Z,43.73
2019-03-23T20:59:09.530Z,42.97
2019-03-23T21:01:36.763Z,43.73
2019-03-23T21:04:04.401Z,43.83
2019-03-23T21:06:31.982Z,43.63
2019-03-23T21:08:59.223Z,45.03
2019-03-23T21:11:26.459Z,43.97
2019-03-23T21:13:53.676Z,43.93
2019-03-23T21:16:20.918Z,43.97
2019-03-23T21:18:48.138Z,42.90
2019-03-23T21:21:15.665Z,44.50
2019-03-23T21:23:43.223Z,42.10
2019-03-23T21:26:10.445Z,43.13
2019-03-23T21:28:37.685Z,44.53
2019-03-23T21:31:04.904Z,41.80
2019-03-23T21:33:38.597Z,47.13
2019-03-23T21:36:01.077Z,49.40
2019-03-23T21:38:28.326Z,52.13
2019-03-23T21:40:55.546Z,58.67
2019-03-23T21:43:23.082Z,54.97
2019-03-23T21:45:50.301Z,58.23
2019-03-23T21:48:17.543Z,51.70
2019-03-23T21:50:47.764Z,51.97
2019-03-23T21:53:13.775Z,46.83
2019-03-23T21:55:41.058Z,48.30
2019-03-23T21:58:08.538Z,46.63
2019-03-23T22:00:36.194Z,45.37
2019-03-23T22:03:03.753Z,45.17
2019-03-23T22:05:31.326Z,45.90
2019-03-23T22:07:58.530Z,44.17
2019-03-23T22:10:26.124Z,45.60
2019-03-23T22:12:53.366Z,45.77
2019-03-23T22:15:20.931Z,46.80
2019-03-23T22:17:48.152Z,46.97
2019-03-23T22:20:15.372Z,47.47
2019-03-23T22:22:42.590Z,45.10
2019-03-23T22:25:30.947Z,46.87
2019-03-23T22:27:58.141Z,49.70
2019-03-23T22:30:25.369Z,47.67
2019-03-23T22:32:52.621Z,51.67
2019-03-23T22:35:19.838Z,50.03
2019-03-23T22:37:47.059Z,50.77
2019-03-23T22:40:14.958Z,48.70
2019-03-23T22:42:43.438Z,49.20
2019-03-23T22:45:11.601Z,50.93
2019-03-23T22:47:39.158Z,49.43
2019-03-23T22:50:07.841Z,49.03
2019-03-23T22:52:35.302Z,49.83
2019-03-23T22:55:02.538Z,50.33
2019-03-23T22:57:29.845Z,51.63
2019-03-23T22:59:57.085Z,50.13
2019-03-23T23:02:24.620Z,49.87
2019-03-23T23:04:52.172Z,50.20
2019-03-23T23:07:19.429Z,50.23
2019-03-23T23:09:50.638Z,48.77
2019-03-23T23:12:17.882Z,51.97
2019-03-23T23:14:45.382Z,51.90
2019-03-23T23:17:12.593Z,50.63
2019-03-23T23:19:39.825Z,46.63
2019-03-23T23:22:07.042Z,49.30
2019-03-23T23:24:34.285Z,49.00
2019-03-23T23:27:01.489Z,47.50
2019-03-23T23:29:29.226Z,48.90
2019-03-23T23:31:56.590Z,48.70
2019-03-23T23:34:23.802Z,47.93
2019-03-23T23:36:51.038Z,49.27
2019-03-23T23:39:18.245Z,47.60
2019-03-23T23:41:45.754Z,70.83
2019-03-23T23:44:13.327Z,47.53
2019-03-23T23:46:40.557Z,47.07
2019-03-23T23:49:07.793Z,46.87
2019-03-23T23:51:35.005Z,48.43
2019-03-23T23:54:02.246Z,49.53
2019-03-23T23:56:29.463Z,48.07
2019-03-23T23:58:56.697Z,52.63
